createdAt,value
2022-12-01T00:00:09.992Z,7.78
2022-12-01T00:05:11.813Z,8.30
2022-12-01T00:10:29.046Z,6.95
2022-12-01T00:15:34.615Z,7.75
2022-12-01T00:20:36.822Z,6.97
2022-12-01T00:25:40.723Z,7.15
2022-12-01T00:30:42.602Z,7.22
2022-12-01T00:35:44.387Z,6.70
2022-12-01T00:40:46.207Z,6.90
2022-12-01T00:45:48.385Z,7.00
2022-12-01T00:50:54.654Z,6.68
2022-12-01T00:55:57.449Z,6.60
2022-12-01T01:01:01.368Z,6.93
2022-12-01T01:06:12.298Z,6.75
2022-12-01T01:11:14.139Z,6.20
2022-12-01T01:16:18.810Z,6.72
2022-12-01T01:21:22.178Z,6.55
2022-12-01T01:26:30.732Z,6.13
2022-12-01T01:31:32.605Z,5.78
2022-12-01T01:36:34.685Z,6.20
2022-12-01T01:41:36.470Z,6.28
2022-12-01T01:46:38.253Z,6.72
2022-12-01T01:51:55.273Z,5.75
2022-12-01T01:56:59.947Z,5.80
2022-12-01T02:02:12.356Z,5.72
2022-12-01T02:07:18.362Z,5.50
2022-12-01T02:12:52.052Z,5.80
2022-12-01T02:18:32.345Z,6.00
2022-12-01T02:24:15.222Z,4.97
2022-12-01T02:29:53.291Z,5.15
2022-12-01T02:35:14.926Z,5.43
2022-12-01T02:40:35.291Z,5.10
2022-12-01T02:46:16.466Z,4.97
2022-12-01T02:51:28.963Z,5.18
2022-12-01T02:56:30.977Z,4.28
2022-12-01T03:01:46.390Z,5.07
2022-12-01T03:07:38.880Z,4.20
2022-12-01T03:13:00.190Z,4.95
2022-12-01T03:18:23.186Z,4.55
2022-12-01T03:23:28.700Z,4.50
2022-12-01T03:28:35.083Z,4.45
2022-12-01T03:33:41.180Z,5.55
2022-12-01T03:38:48.555Z,4.47
2022-12-01T03:43:57.574Z,4.70
2022-12-01T03:48:59.405Z,4.82
2022-12-01T03:54:33.855Z,4.65
2022-12-01T03:59:38.422Z,5.55
2022-12-01T04:04:40.204Z,5.05
2022-12-01T04:09:42.153Z,5.05
2022-12-01T04:14:43.930Z,4.90
2022-12-01T04:19:45.770Z,4.55
2022-12-01T04:24:47.616Z,3.60
2022-12-01T04:29:49.723Z,3.47
2022-12-01T04:34:51.670Z,3.72
2022-12-01T04:39:53.446Z,4.22
2022-12-01T04:44:55.210Z,4.00
2022-12-01T04:49:57.005Z,4.15
2022-12-01T04:54:58.794Z,3.50
2022-12-01T05:00:00.570Z,3.83
2022-12-01T05:05:02.407Z,3.13
2022-12-01T05:10:05.178Z,3.20
2022-12-01T05:15:07.994Z,2.63
2022-12-01T05:20:36.945Z,3.17
2022-12-01T05:25:39.027Z,4.18
2022-12-01T05:30:40.925Z,4.90
2022-12-01T05:35:42.829Z,13.95
2022-12-01T05:40:51.421Z,5.13
2022-12-01T05:45:55.374Z,4.32
2022-12-01T05:50:57.251Z,5.18
2022-12-01T05:55:59.086Z,4.05
2022-12-01T06:01:01.333Z,7.15
2022-12-01T06:06:03.193Z,4.13
2022-12-01T06:11:05.131Z,4.88
2022-12-01T06:16:07.475Z,12.98
2022-12-01T06:21:09.326Z,13.57
2022-12-01T06:26:11.089Z,21.02
2022-12-01T06:31:13.473Z,9.73
2022-12-01T06:36:15.287Z,6.13
2022-12-01T06:41:17.132Z,3.88
2022-12-01T06:46:19.011Z,3.78
2022-12-01T06:51:20.891Z,4.50
2022-12-01T06:56:23.376Z,4.85
2022-12-01T07:01:28.723Z,5.53
2022-12-01T07:06:31.324Z,3.60
2022-12-01T07:11:36.154Z,3.97
2022-12-01T07:16:38.092Z,4.03
2022-12-01T07:21:40.234Z,3.78
2022-12-01T07:26:42.670Z,3.30
2022-12-01T07:31:44.577Z,4.35
2022-12-01T07:36:46.443Z,13.93
2022-12-01T07:41:48.461Z,20.73
2022-12-01T07:46:50.436Z,12.45
2022-12-01T07:51:52.323Z,7.07
2022-12-01T07:56:54.545Z,3.80
2022-12-01T08:01:56.483Z,16.98
2022-12-01T08:06:58.428Z,11.70
2022-12-01T08:12:00.314Z,10.32
2022-12-01T08:17:02.207Z,6.22
2022-12-01T08:22:04.012Z,5.22
2022-12-01T08:27:05.818Z,4.43
2022-12-01T08:32:08.160Z,4.47
2022-12-01T08:37:10.210Z,4.40
2022-12-01T08:42:12.217Z,7.18
2022-12-01T08:47:17.323Z,8.52
2022-12-01T08:52:20.769Z,9.65
2022-12-01T08:57:22.607Z,9.95
2022-12-01T09:02:24.804Z,13.20
2022-12-01T09:07:27.095Z,12.23
2022-12-01T09:12:29.695Z,15.90
2022-12-01T09:17:31.573Z,16.80
2022-12-01T09:22:34.874Z,17.00
2022-12-01T09:27:36.643Z,16.63
2022-12-01T09:32:38.387Z,14.70
2022-12-01T09:37:40.193Z,17.08
2022-12-01T09:42:43.934Z,17.40
2022-12-01T09:47:46.720Z,17.55
2022-12-01T09:52:53.307Z,17.25
2022-12-01T09:57:58.378Z,16.38
2022-12-01T10:03:09.779Z,16.25
2022-12-01T10:08:16.739Z,16.30
2022-12-01T10:13:21.459Z,19.00
2022-12-01T10:18:58.638Z,22.15
2022-12-01T10:24:10.918Z,19.67
2022-12-01T10:29:26.199Z,21.40
2022-12-01T10:34:34.683Z,19.55
2022-12-01T10:39:46.406Z,19.42
2022-12-01T10:44:49.231Z,21.02
2022-12-01T10:49:51.715Z,20.08
2022-12-01T10:54:53.698Z,19.85
2022-12-01T11:00:02.719Z,19.75
2022-12-01T11:05:22.300Z,19.83
2022-12-01T11:10:29.021Z,20.67
2022-12-01T11:15:39.740Z,17.40
2022-12-01T11:20:41.787Z,19.25
2022-12-01T11:26:01.382Z,18.50
2022-12-01T11:31:07.520Z,14.75
2022-12-01T11:36:14.640Z,14.68
2022-12-01T11:41:44.212Z,16.17
2022-12-01T11:46:55.806Z,16.38
2022-12-01T11:52:36.441Z,19.00
2022-12-01T11:57:42.565Z,17.15
2022-12-01T12:03:03.236Z,16.75
2022-12-01T12:08:11.030Z,16.20
2022-12-01T12:18:23.751Z,17.52
2022-12-01T12:23:52.768Z,19.83
2022-12-01T12:29:31.364Z,19.80
2022-12-01T12:35:09.847Z,19.60
2022-12-01T12:40:31.080Z,19.70
2022-12-01T12:45:53.348Z,17.63
2022-12-01T12:51:16.203Z,20.13
2022-12-01T12:56:20.871Z,17.90
2022-12-01T13:01:40.808Z,19.10
2022-12-01T13:06:56.142Z,19.00
2022-12-01T13:12:06.379Z,20.90
2022-12-01T13:17:31.650Z,20.58
2022-12-01T13:22:35.824Z,20.35
2022-12-01T13:27:41.087Z,21.55
2022-12-01T13:32:43.162Z,22.42
2022-12-01T13:37:46.415Z,22.10
2022-12-01T13:42:55.759Z,21.67
2022-12-01T13:47:59.987Z,22.67
2022-12-01T13:53:20.358Z,21.80
2022-12-01T13:58:26.993Z,22.70
2022-12-01T14:03:28.918Z,22.70
2022-12-01T14:08:34.599Z,21.92
2022-12-01T14:14:04.632Z,20.40
2022-12-01T14:19:06.506Z,21.10
2022-12-01T14:24:21.592Z,23.58
2022-12-01T14:29:43.167Z,27.50
2022-12-01T14:34:49.670Z,28.23
2022-12-01T14:40:05.607Z,26.88
2022-12-01T14:45:11.887Z,30.48
2022-12-01T14:50:22.583Z,31.77
2022-12-01T14:55:41.556Z,32.35
2022-12-01T15:00:57.977Z,32.37
2022-12-01T15:05:59.981Z,29.73
2022-12-01T15:11:10.673Z,31.90
2022-12-01T15:16:19.560Z,31.80
2022-12-01T15:21:27.146Z,29.55
2022-12-01T15:26:32.033Z,36.78
2022-12-01T15:31:35.136Z,35.58
2022-12-01T15:36:38.143Z,31.65
2022-12-01T15:41:41.538Z,31.98
2022-12-01T15:46:44.454Z,33.85
2022-12-01T15:51:48.955Z,32.47
2022-12-01T15:56:56.142Z,35.83
2022-12-01T16:01:58.527Z,37.00
2022-12-01T16:07:09.274Z,30.90
2022-12-01T16:12:17.701Z,32.45
2022-12-01T16:17:19.515Z,30.95
2022-12-01T16:22:22.370Z,29.20
2022-12-01T16:27:27.275Z,30.60
2022-12-01T16:32:34.839Z,30.10
2022-12-01T16:37:36.643Z,27.55
2022-12-01T16:42:38.454Z,28.35
2022-12-01T16:47:41.108Z,31.10
2022-12-01T16:52:44.683Z,28.15
2022-12-01T16:57:47.278Z,28.88
2022-12-01T17:02:49.320Z,25.48
2022-12-01T17:07:51.986Z,21.25
2022-12-01T17:12:54.907Z,22.08
2022-12-01T17:17:56.727Z,32.47
2022-12-01T17:22:59.115Z,23.35
2022-12-01T17:28:00.958Z,25.90
2022-12-01T17:33:02.815Z,31.30
2022-12-01T17:38:04.844Z,33.28
2022-12-01T17:43:08.193Z,33.42
2022-12-01T17:48:10.922Z,48.22
2022-12-01T17:53:12.763Z,173.98
2022-12-01T17:58:14.620Z,32.80
2022-12-01T18:03:16.483Z,28.55
2022-12-01T18:08:18.314Z,26.65
2022-12-01T18:13:21.547Z,29.15
2022-12-01T18:18:24.615Z,35.00
2022-12-01T18:23:27.154Z,29.50
2022-12-01T18:28:28.962Z,27.80
2022-12-01T18:33:36.630Z,24.83
2022-12-01T18:38:38.650Z,27.50
2022-12-01T18:43:40.470Z,28.42
2022-12-01T18:48:46.838Z,26.38
2022-12-01T18:53:48.698Z,28.55
2022-12-01T18:58:58.422Z,26.13
2022-12-01T19:04:01.016Z,29.77
2022-12-01T19:09:05.159Z,27.35
2022-12-01T19:14:11.935Z,27.67
2022-12-01T19:19:14.131Z,28.23
2022-12-01T19:24:16.742Z,27.65
2022-12-01T19:29:18.703Z,28.35
2022-12-01T19:34:20.774Z,27.48
2022-12-01T19:39:23.214Z,28.30
2022-12-01T19:44:25.074Z,27.52
2022-12-01T19:49:27.039Z,28.23
2022-12-01T19:54:30.387Z,28.58
2022-12-01T19:59:32.163Z,25.15
2022-12-01T20:04:34.113Z,26.65
2022-12-01T20:09:36.092Z,25.67
2022-12-01T20:14:37.922Z,25.77
2022-12-01T20:19:39.770Z,24.77
2022-12-01T20:24:42.018Z,27.70
2022-12-01T20:29:43.848Z,29.25
2022-12-01T20:34:45.706Z,28.33
2022-12-01T20:39:47.654Z,27.92
2022-12-01T20:44:49.673Z,28.10
2022-12-01T20:49:55.519Z,32.47
2022-12-01T20:55:00.202Z,26.25
2022-12-01T21:00:02.133Z,28.42
2022-12-01T21:05:04.316Z,31.55
2022-12-01T21:10:07.170Z,29.63
2022-12-01T21:15:17.872Z,25.48
2022-12-01T21:20:28.076Z,30.70
2022-12-01T21:25:30.967Z,29.05
2022-12-01T21:30:33.830Z,27.45
2022-12-01T21:35:35.714Z,27.27
2022-12-01T21:40:37.579Z,30.50
2022-12-01T21:45:39.431Z,31.65
2022-12-01T21:50:41.402Z,32.63
2022-12-01T21:55:45.445Z,30.80
2022-12-01T22:00:47.283Z,28.35
2022-12-01T22:06:27.823Z,27.42
2022-12-01T22:11:19.878Z,25.55
2022-12-01T22:16:28.482Z,25.23
2022-12-01T22:21:37.041Z,25.88
2022-12-01T22:26:46.600Z,26.98
2022-12-01T22:31:48.506Z,26.08
2022-12-01T22:36:51.386Z,25.13
2022-12-01T22:42:00.075Z,25.17
2022-12-01T22:47:03.615Z,24.63
2022-12-01T22:52:14.046Z,25.80
2022-12-01T22:57:28.403Z,22.00
2022-12-01T23:02:34.197Z,23.15
2022-12-01T23:07:41.418Z,21.27
2022-12-01T23:12:44.792Z,20.48
2022-12-01T23:17:46.942Z,21.85
2022-12-01T23:22:48.842Z,22.80
2022-12-01T23:27:52.859Z,22.85
2022-12-01T23:33:13.383Z,23.88
2022-12-01T23:38:19.892Z,22.35
2022-12-01T23:43:25.206Z,24.77
2022-12-01T23:48:33.749Z,22.77
2022-12-01T23:53:35.595Z,22.92
2022-12-01T23:58:37.419Z,20.42
